Time;durP1;ratioP1;P1;durP2;ratioP2;P2;SDS_P1;SDS_P2;PMS_P1;PMS_P2;Temp;Humidity;BMP_temperature;BMP_pressure;BME280_temperature;BME280_humidity;BME280_pressure;Samples;Min_cycle;Max_cycle;Signal;HPM_P1;HPM_P2
2022/09/20 00:01:27;;;;;;;12.90;7.05;;;;;;;9.52;100.00;99659.28;1718107;83;21637;-68
2022/09/20 00:03:56;;;;;;;16.05;7.28;;;;;;;9.49;100.00;99662.89;1718098;83;21068;-66
2022/09/20 00:06:26;;;;;;;14.23;6.75;;;;;;;9.48;100.00;99664.25;1733551;82;21041;-67
2022/09/20 00:08:53;;;;;;;10.95;6.58;;;;;;;9.47;100.00;99667.81;1748266;82;21093;-66
2022/09/20 00:11:25;;;;;;;11.53;5.90;;;;;;;9.48;100.00;99666.88;1748174;82;21080;-67
2022/09/20 00:13:54;;;;;;;10.75;6.70;;;;;;;9.48;100.00;99666.88;1747959;82;21051;-67
2022/09/20 00:16:25;;;;;;;11.95;6.33;;;;;;;9.48;100.00;99662.94;1748282;82;21040;-68
2022/09/20 00:18:54;;;;;;;15.23;6.65;;;;;;;9.46;100.00;99660.39;1748614;82;21070;-65
2022/09/20 00:21:27;;;;;;;12.55;5.90;;;;;;;9.45;100.00;99661.30;1748150;82;21013;-67
2022/09/20 00:23:56;;;;;;;9.80;6.15;;;;;;;9.43;100.00;99660.06;1748300;82;21041;-66
2022/09/20 00:26:23;;;;;;;11.50;6.50;;;;;;;9.42;100.00;99647.81;1748421;82;21299;-66
2022/09/20 00:28:50;;;;;;;11.83;6.20;;;;;;;9.44;100.00;99644.67;1748405;82;21073;-67
2022/09/20 00:31:17;;;;;;;14.00;6.12;;;;;;;9.44;100.00;99647.77;1748394;82;21030;-65
2022/09/20 00:36:30;;;;;;;9.18;5.92;;;;;;;9.39;100.00;99655.84;1748318;82;21096;-66
2022/09/20 00:38:59;;;;;;;14.25;6.58;;;;;;;9.36;100.00;99652.03;1748369;82;21088;-66
2022/09/20 00:41:25;;;;;;;12.95;7.03;;;;;;;9.31;100.00;99646.53;1748303;82;21042;-68
2022/09/20 00:43:52;;;;;;;11.03;6.87;;;;;;;9.24;100.00;99650.70;1748420;82;21105;-67
2022/09/20 00:46:23;;;;;;;9.60;6.12;;;;;;;9.20;100.00;99652.20;1748348;82;21045;-66
2022/09/20 00:48:57;;;;;;;11.12;6.45;;;;;;;9.15;100.00;99647.59;1748438;82;21049;-67
2022/09/20 00:51:28;;;;;;;11.33;6.75;;;;;;;9.11;100.00;99644.67;1721055;82;21152;-66
2022/09/20 00:53:56;;;;;;;9.95;6.42;;;;;;;9.06;100.00;99647.95;1748260;82;21045;-66
2022/09/20 00:56:30;;;;;;;14.65;6.55;;;;;;;9.02;100.00;99641.51;1748190;82;21104;-67
2022/09/20 00:59:14;;;;;;;12.37;5.97;;;;;;;8.99;100.00;99642.92;1748300;82;21116;-66
2022/09/20 01:01:44;;;;;;;18.75;6.58;;;;;;;8.95;100.00;99641.34;1748038;81;21092;-67
2022/09/20 01:04:13;;;;;;;14.47;6.42;;;;;;;8.91;100.00;99646.78;1748087;81;21171;-65
2022/09/20 01:06:40;;;;;;;17.23;6.28;;;;;;;8.85;100.00;99650.47;1747996;82;21010;-67
2022/09/20 01:09:06;;;;;;;18.37;6.70;;;;;;;8.84;100.00;99648.77;1748252;82;21578;-66
2022/09/20 01:11:34;;;;;;;13.75;6.62;;;;;;;8.82;100.00;99644.03;1748321;82;21026;-66
2022/09/20 01:14:00;;;;;;;13.75;6.62;;;;;;;8.82;100.00;99644.03;1748185;82;21092;-66
2022/09/20 01:16:27;;;;;;;13.18;6.42;;;;;;;8.81;100.00;99643.62;1748116;82;21652;-66
2022/09/20 01:18:56;;;;;;;15.25;6.97;;;;;;;8.77;100.00;99642.05;1748433;82;21057;-67
2022/09/20 01:21:23;;;;;;;13.10;6.35;;;;;;;8.75;100.00;99647.34;1748090;82;21053;-67
2022/09/20 01:24:01;;;;;;;19.80;7.15;;;;;;;8.75;100.00;99649.12;1720475;82;21088;-66
2022/09/20 01:26:51;;;;;;;14.45;6.80;;;;;;;8.75;100.00;99649.12;1748045;82;21108;-67
2022/09/20 01:29:35;;;;;;;11.48;6.12;;;;;;;8.74;100.00;99648.70;1748196;82;21107;-67
2022/09/20 01:32:04;;;;;;;14.90;6.53;;;;;;;8.72;100.00;99645.27;1744871;82;21061;-67
2022/09/20 01:34:36;;;;;;;16.65;7.60;;;;;;;8.71;100.00;99647.52;1720847;82;21029;-67
2022/09/20 01:37:15;;;;;;;13.05;6.70;;;;;;;8.69;100.00;99641.45;1747986;82;21558;-66
2022/09/20 01:39:52;;;;;;;18.17;6.78;;;;;;;8.68;100.00;99646.33;1748395;82;21068;-67
2022/09/20 01:42:19;;;;;;;12.98;6.22;;;;;;;8.66;100.00;99644.20;1747976;82;21159;-67
2022/09/20 01:45:11;;;;;;;14.43;6.92;;;;;;;8.66;100.00;99646.38;1748054;82;21014;-67
2022/09/20 01:48:01;;;;;;;12.73;6.53;;;;;;;8.66;100.00;99648.14;1747855;82;21049;-67
2022/09/20 01:50:40;;;;;;;13.40;6.40;;;;;;;8.66;100.00;99644.20;1748402;82;21104;-66
2022/09/20 01:53:24;;;;;;;15.60;7.87;;;;;;;8.67;100.00;99645.91;1747135;82;21049;-67
2022/09/20 01:56:38;;;;;;;16.57;7.03;;;;;;;8.66;100.00;99641.58;1726343;82;21160;-66
2022/09/20 01:59:14;;;;;;;14.03;6.37;;;;;;;8.64;100.00;99627.66;1718204;83;21058;-68
2022/09/20 02:01:58;;;;;;;13.88;6.45;;;;;;;8.61;100.00;99634.73;1739294;82;21637;-66
2022/09/20 02:05:11;;;;;;;12.45;6.47;;;;;;;8.61;100.00;99635.19;1737341;81;21018;-67
2022/09/20 02:08:20;;;;;;;13.72;7.10;;;;;;;8.60;100.00;99634.34;1734305;82;21042;-66
2022/09/20 02:11:11;;;;;;;12.05;6.67;;;;;;;8.59;100.00;99628.67;1734221;82;21081;-68
2022/09/20 02:13:59;;;;;;;11.05;6.30;;;;;;;8.60;100.00;99635.66;1734007;82;21090;-66
2022/09/20 02:17:05;;;;;;;16.27;6.62;;;;;;;8.58;100.00;99644.47;1733934;82;21154;-66
2022/09/20 02:19:50;;;;;;;18.02;6.95;;;;;;;8.58;100.00;99646.66;1679985;85;21288;-66
2022/09/20 02:22:41;;;;;;;12.95;6.20;;;;;;;8.58;100.00;99645.78;1725943;82;21061;-67
2022/09/20 02:25:36;;;;;;;15.55;7.00;;;;;;;8.57;100.00;99651.49;1734150;82;25201;-66
2022/09/20 02:28:17;;;;;;;12.05;6.83;;;;;;;8.55;100.00;99649.38;1733991;82;22068;-65
2022/09/20 02:30:55;;;;;;;16.70;7.08;;;;;;;8.53;100.00;99649.88;1723360;82;21022;-67
2022/09/20 02:33:33;;;;;;;17.27;6.85;;;;;;;8.52;100.00;99652.13;1734302;82;21025;-67
2022/09/20 02:36:21;;;;;;;16.32;6.67;;;;;;;8.50;100.00;99650.01;1734060;82;21053;-66
2022/09/20 02:39:18;;;;;;;18.37;6.97;;;;;;;8.50;100.00;99652.63;1733016;82;21182;-64
2022/09/20 02:41:58;;;;;;;20.60;6.95;;;;;;;8.50;100.00;99650.01;1733610;81;21136;-65
2022/09/20 02:45:06;;;;;;;11.37;6.30;;;;;;;8.47;100.00;99644.88;1734345;82;22353;-65
2022/09/20 02:47:38;;;;;;;18.42;6.62;;;;;;;8.46;100.00;99644.46;1733983;82;21062;-67
2022/09/20 02:50:31;;;;;;;10.70;5.55;;;;;;;8.44;100.00;99641.03;1733976;82;21125;-65
2022/09/20 02:53:06;;;;;;;12.98;5.67;;;;;;;8.44;100.00;99645.43;1733682;82;21146;-66
2022/09/20 02:55:58;;;;;;;12.33;6.37;;;;;;;8.42;100.00;99641.58;1716025;82;21085;-66
2022/09/20 02:59:00;;;;;;;14.15;6.00;;;;;;;8.43;100.00;99648.52;1704788;84;21323;-65
2022/09/20 03:01:47;;;;;;;11.03;6.03;;;;;;;8.41;100.00;99647.72;1722140;82;21037;-68
2022/09/20 03:04:45;;;;;;;11.93;5.30;;;;;;;8.38;100.00;99644.72;1742048;81;21106;-67
2022/09/20 03:07:57;;;;;;;14.73;6.05;;;;;;;8.37;100.00;99652.63;1748011;82;21254;-66
2022/09/20 03:10:52;;;;;;;10.32;5.83;;;;;;;8.39;100.00;99650.35;1747971;82;21041;-67
2022/09/20 03:13:30;;;;;;;11.53;5.55;;;;;;;8.40;100.00;99664.38;1747542;82;21105;-67
2022/09/20 03:16:21;;;;;;;13.70;6.05;;;;;;;8.38;100.00;99660.92;1748116;82;21501;-66
2022/09/20 03:19:21;;;;;;;12.45;5.72;;;;;;;8.35;100.00;99656.64;1748229;82;21501;-66
2022/09/20 03:22:24;;;;;;;13.47;6.10;;;;;;;8.33;100.00;99654.98;1713696;82;21255;-67
2022/09/20 03:25:29;;;;;;;12.15;6.33;;;;;;;8.32;100.00;99661.12;1747695;82;21073;-66
2022/09/20 03:28:52;;;;;;;16.35;6.78;;;;;;;8.31;100.00;99655.03;1748053;81;21101;-67
2022/09/20 03:31:39;;;;;;;14.23;6.60;;;;;;;8.31;100.00;99659.43;1748118;82;21514;-66
2022/09/20 03:34:15;;;;;;;11.50;6.67;;;;;;;8.30;100.00;99664.25;1743353;80;20974;-67
2022/09/20 03:37:10;;;;;;;13.70;7.37;;;;;;;8.30;100.00;99665.11;1704847;84;21161;-67
2022/09/20 03:40:18;;;;;;;11.38;6.47;;;;;;;8.29;100.00;99663.87;1705201;84;21047;-68
2022/09/20 03:42:51;;;;;;;13.68;7.12;;;;;;;8.29;100.00;99667.34;1704816;84;21095;-66
2022/09/20 03:46:04;;;;;;;8.90;5.83;;;;;;;8.29;100.00;99676.52;1705047;84;21008;-67
2022/09/20 03:49:07;;;;;;;14.40;6.17;;;;;;;8.31;100.00;99677.33;1705147;84;21079;-67
2022/09/20 03:51:58;;;;;;;8.33;5.00;;;;;;;8.32;100.00;99674.25;1704800;84;21902;-68
2022/09/20 03:54:39;;;;;;;11.57;5.80;;;;;;;8.36;100.00;99678.48;1676408;85;21176;-67
2022/09/20 03:57:29;;;;;;;9.95;6.25;;;;;;;8.38;100.00;99676.66;1674712;85;21080;-68
2022/09/20 04:00:25;;;;;;;10.68;5.80;;;;;;;8.40;100.00;99680.13;1675266;85;21139;-68
2022/09/20 04:03:21;;;;;;;12.40;5.95;;;;;;;8.44;100.00;99679.08;1674916;85;21075;-67
2022/09/20 04:06:15;;;;;;;15.40;6.53;;;;;;;8.46;100.00;99681.20;1675357;85;21127;-66
2022/09/20 04:09:18;;;;;;;11.28;6.22;;;;;;;8.49;100.00;99681.55;1675146;85;21117;-67
2022/09/20 04:12:08;;;;;;;8.90;5.53;;;;;;;8.51;100.00;99681.92;1674864;85;21096;-68
2022/09/20 04:18:46;;;;;;;13.93;6.47;;;;;;;8.57;100.00;99687.39;1814386;79;28005;-67
2022/09/20 04:21:31;;;;;;;9.88;5.92;;;;;;;8.59;100.00;99690.36;1787259;80;21037;-67
2022/09/20 04:24:38;;;;;;;10.30;6.15;;;;;;;8.65;100.00;99685.79;1743642;80;21646;-67
2022/09/20 04:27:13;;;;;;;11.68;6.15;;;;;;;8.68;100.00;99694.89;1787629;80;21104;-67
2022/09/20 04:29:56;;;;;;;15.60;6.30;;;;;;;8.75;100.00;99697.23;1787453;80;21049;-68
2022/09/20 04:33:00;;;;;;;15.48;5.75;;;;;;;8.79;100.00;99701.92;1787283;80;21603;-66
2022/09/20 04:39:15;;;;;;;9.53;4.87;;;;;;;8.80;100.00;99694.43;1782856;80;21119;-66
2022/09/20 04:42:02;;;;;;;13.38;5.50;;;;;;;8.84;100.00;99699.13;1780734;80;21093;-68
2022/09/20 04:45:10;;;;;;;14.63;6.08;;;;;;;8.87;100.00;99704.26;1781881;80;21037;-67
2022/09/20 04:48:10;;;;;;;17.73;6.35;;;;;;;8.89;100.00;99711.16;1782686;80;21045;-67
2022/09/20 04:51:11;;;;;;;18.87;6.78;;;;;;;8.93;100.00;99708.83;1782498;80;21041;-69
2022/09/20 04:53:58;;;;;;;;;;;;;;;8.97;100.00;99710.44;1785339;79;21192;-67
2022/09/20 04:56:41;;;;;;;13.30;6.28;;;;;;;8.98;100.00;99705.56;1757389;80;20176;-68
2022/09/20 04:59:09;;;;;;;12.93;6.53;;;;;;;8.99;100.00;99710.36;1750092;81;20995;-68
2022/09/20 05:02:08;;;;;;;14.07;6.60;;;;;;;9.00;100.00;99714.72;1756619;81;21470;-68
2022/09/20 05:04:54;;;;;;;12.95;7.40;;;;;;;9.00;100.00;99714.25;1756465;81;21069;-67
2022/09/20 05:07:49;;;;;;;17.87;7.10;;;;;;;9.01;100.00;99706.75;1748567;81;21229;-68
2022/09/20 05:11:13;;;;;;;13.93;7.47;;;;;;;9.06;100.00;99705.73;1756474;81;21529;-67
2022/09/20 05:14:24;;;;;;;15.78;8.95;;;;;;;9.10;100.00;99708.66;1756629;81;21073;-66
2022/09/20 05:17:20;;;;;;;;;;;;;;;9.15;100.00;99703.61;1753639;81;21059;-68
2022/09/20 05:20:15;;;;;;;14.85;6.83;;;;;;;9.18;100.00;99707.92;1736211;82;20181;-68
2022/09/20 05:22:53;;;;;;;19.52;9.15;;;;;;;9.21;100.00;99709.11;1736605;82;21188;-67
2022/09/20 05:26:06;;;;;;;19.32;9.00;;;;;;;9.30;100.00;99706.13;1736362;82;21098;-67
2022/09/20 05:28:44;;;;;;;17.57;9.43;;;;;;;9.36;100.00;99705.02;1736460;82;21034;-66
2022/09/20 05:31:36;;;;;;;18.45;8.23;;;;;;;9.47;100.00;99705.92;1734980;82;21088;-68
2022/09/20 05:34:29;;;;;;;20.45;8.03;;;;;;;9.58;100.00;99703.73;1736334;82;21431;-68
2022/09/20 05:37:07;;;;;;;16.70;7.10;;;;;;;9.73;100.00;99691.30;1735993;82;21835;-67
2022/09/20 05:39:58;;;;;;;14.78;7.03;;;;;;;9.84;100.00;99686.42;1736275;82;21058;-67
2022/09/20 05:42:43;;;;;;;15.40;6.67;;;;;;;10.02;100.00;99690.55;1736195;82;21039;-67
2022/09/20 05:45:44;;;;;;;13.75;6.42;;;;;;;10.14;100.00;99696.59;1736282;82;21566;-68
2022/09/20 05:48:24;;;;;;;10.93;6.67;;;;;;;10.22;100.00;99695.83;1727815;82;22092;-68
2022/09/20 05:51:02;;;;;;;14.58;6.92;;;;;;;10.28;100.00;99692.98;1735664;82;21160;-69
2022/09/20 05:54:04;;;;;;;15.43;7.47;;;;;;;10.33;100.00;99694.53;1730150;82;20998;-66
2022/09/20 05:56:55;;;;;;;21.00;8.98;;;;;;;10.34;100.00;99693.63;1736029;82;25576;-69
2022/09/20 06:00:06;;;;;;;16.50;7.92;;;;;;;10.40;100.00;99698.61;1736417;82;21608;-68
2022/09/20 06:03:14;;;;;;;13.75;7.62;;;;;;;10.42;100.00;99702.03;1735931;82;21058;-67
2022/09/20 06:06:03;;;;;;;17.20;8.40;;;;;;;10.46;100.00;99698.35;1736138;82;21842;-68
2022/09/20 06:09:08;;;;;;;12.58;7.45;;;;;;;10.46;100.00;99689.14;1736256;82;21585;-68
2022/09/20 06:11:57;;;;;;;11.03;6.53;;;;;;;10.47;100.00;99696.98;1736059;82;21523;-70
2022/09/20 06:14:52;;;;;;;14.25;6.90;;;;;;;10.47;100.00;99694.81;1736387;82;21097;-68
2022/09/20 06:17:27;;;;;;;13.90;6.50;;;;;;;10.49;100.00;99691.66;1738438;82;21100;-67
2022/09/20 06:20:33;;;;;;;13.50;6.30;;;;;;;10.55;100.00;99688.73;1741094;82;21069;-67
2022/09/20 06:23:01;;;;;;;14.73;6.05;;;;;;;10.60;100.00;99695.97;1707649;83;21029;-68
2022/09/20 06:25:45;;;;;;;11.10;5.85;;;;;;;10.64;100.00;99694.91;1740725;82;21119;-68
2022/09/20 06:28:16;;;;;;;13.40;6.65;;;;;;;10.68;100.00;99693.86;1743324;82;21097;-68
2022/09/20 06:30:51;;;;;;;14.33;6.80;;;;;;;10.71;100.00;99695.50;1707726;83;21041;-68
2022/09/20 06:33:24;;;;;;;10.60;6.28;;;;;;;10.76;100.00;99697.45;1743315;82;21199;-67
2022/09/20 06:42:05;;;;;;;14.60;6.07;;;;;;;11.01;100.00;99682.72;1743769;82;21039;-69
2022/09/20 06:44:31;;;;;;;11.08;5.15;;;;;;;11.11;100.00;99683.14;1743553;82;21069;-68
2022/09/20 06:47:00;;;;;;;7.80;4.92;;;;;;;11.18;100.00;99690.30;1743153;82;21922;-67
2022/09/20 06:49:29;;;;;;;9.63;5.20;;;;;;;11.26;100.00;99686.86;1743400;82;21030;-67
2022/09/20 06:51:56;;;;;;;10.72;4.67;;;;;;;11.30;100.00;99696.34;1743223;81;21526;-68
2022/09/20 06:54:23;;;;;;;9.78;4.40;;;;;;;11.31;100.00;99692.77;1747449;80;21033;-69
2022/09/20 06:56:49;;;;;;;7.78;4.58;;;;;;;11.33;100.00;99692.23;1773812;80;21084;-67
2022/09/20 06:59:17;;;;;;;17.42;4.72;;;;;;;11.37;100.00;99699.08;1705121;84;21254;-67
2022/09/20 07:01:44;;;;;;;8.83;4.50;;;;;;;11.43;100.00;99694.81;1773471;80;20998;-67
2022/09/20 07:04:10;;;;;;;10.93;4.85;;;;;;;11.50;100.00;99696.69;1774151;80;21612;-67
2022/09/20 07:06:39;;;;;;;9.85;5.00;;;;;;;11.57;100.00;99690.66;1773656;80;21045;-68
2022/09/20 07:09:08;;;;;;;7.60;4.50;;;;;;;11.67;100.00;99690.63;1734378;82;21129;-68
2022/09/20 07:11:35;;;;;;;9.83;4.65;;;;;;;11.73;100.00;99688.99;1697858;80;21166;-67
2022/09/20 07:14:02;;;;;;;11.15;5.15;;;;;;;11.76;100.00;99690.19;1773557;80;21540;-69
2022/09/20 07:16:29;;;;;;;11.48;4.80;;;;;;;11.79;100.00;99695.30;1734209;82;21570;-67
2022/09/20 07:18:56;;;;;;;12.15;4.67;;;;;;;11.80;100.00;99703.63;1769600;80;21564;-68
2022/09/20 07:21:23;;;;;;;11.45;5.80;;;;;;;11.83;100.00;99703.45;1768405;81;21066;-69
2022/09/20 07:23:50;;;;;;;9.70;5.05;;;;;;;11.86;100.00;99694.53;1768179;81;21203;-68
2022/09/20 07:26:21;;;;;;;8.03;4.65;;;;;;;11.91;100.00;99688.12;1768253;81;21029;-66
2022/09/20 07:28:48;;;;;;;13.28;5.30;;;;;;;12.00;100.00;99681.53;1728937;82;21014;-69
2022/09/20 07:31:17;;;;;;;9.10;4.83;;;;;;;12.12;100.00;99686.66;1768337;81;21113;-68
2022/09/20 07:33:44;;;;;;;14.78;5.58;;;;;;;12.25;100.00;99690.39;1768242;80;21057;-67
2022/09/20 07:36:12;;;;;;;9.55;4.75;;;;;;;12.34;100.00;99679.36;1728824;83;21240;-68
2022/09/20 07:38:39;;;;;;;8.68;4.92;;;;;;;12.48;100.00;99684.41;1768095;81;21002;-68
2022/09/20 07:41:06;;;;;;;10.93;5.10;;;;;;;12.59;100.00;99685.55;1729014;82;21585;-67
2022/09/20 07:43:33;;;;;;;37.55;8.43;;;;;;;12.71;100.00;99686.69;1729136;83;21086;-66
2022/09/20 07:46:00;;;;;;;16.02;5.58;;;;;;;12.79;100.00;99688.47;1768696;81;21026;-68
2022/09/20 07:48:32;;;;;;;11.73;5.67;;;;;;;12.89;100.00;99689.30;1768320;81;21257;-69
2022/09/20 07:51:09;;;;;;;11.33;5.35;;;;;;;12.99;100.00;99696.63;1768211;81;21046;-68
2022/09/20 07:53:43;;;;;;;5.90;4.10;;;;;;;13.13;100.00;99690.59;1749376;81;21013;-69
2022/09/20 07:56:14;;;;;;;6.75;4.05;;;;;;;13.24;100.00;99691.34;1746974;80;21031;-70
2022/09/20 07:58:41;;;;;;;9.93;4.85;;;;;;;13.32;100.00;99683.00;1742998;81;21050;-69
2022/09/20 08:01:10;;;;;;;7.80;4.60;;;;;;;13.38;100.00;99679.55;1743248;82;21101;-68
2022/09/20 08:03:37;;;;;;;15.75;6.03;;;;;;;13.50;100.00;99687.27;1742916;82;21584;-68
2022/09/20 08:06:07;;;;;;;9.53;4.95;;;;;;;13.60;100.00;99689.80;1742989;82;21081;-68
2022/09/20 08:08:36;;;;;;;7.70;4.90;;;;;;;13.63;100.00;99688.77;1743009;81;27517;-68
2022/09/20 08:11:09;;;;;;;12.33;4.55;;;;;;;13.62;100.00;99693.21;1743007;81;21085;-68
2022/09/20 08:13:45;;;;;;;9.80;4.70;;;;;;;13.61;100.00;99692.81;1742783;82;21625;-68
2022/09/20 08:16:16;;;;;;;9.05;4.42;;;;;;;13.52;100.00;99698.63;1742164;81;21057;-67
2022/09/20 08:18:53;;;;;;;11.45;4.85;;;;;;;13.47;100.00;99707.29;1743945;81;21046;-68
2022/09/20 08:21:20;;;;;;;11.33;4.62;;;;;;;13.35;100.00;99704.86;1745936;81;21557;-67
2022/09/20 08:23:48;;;;;;;14.70;5.17;;;;;;;13.23;100.00;99701.07;1745857;81;21073;-69
2022/09/20 08:26:23;;;;;;;7.90;4.95;;;;;;;13.18;100.00;99707.09;1745899;82;21156;-69
2022/09/20 08:28:55;;;;;;;11.00;5.70;;;;;;;13.10;100.00;99706.63;1746117;82;21034;-69
2022/09/20 08:31:24;;;;;;;13.50;5.62;;;;;;;13.02;100.00;99700.89;1746087;82;21116;-69
2022/09/20 08:33:51;;;;;;;9.90;5.83;;;;;;;13.00;100.00;99696.19;1746125;82;21065;-68
2022/09/20 08:36:23;;;;;;;13.75;6.28;;;;;;;12.98;100.00;99700.70;1745852;82;21069;-68
2022/09/20 08:38:50;;;;;;;15.03;6.70;;;;;;;12.95;100.00;99697.75;1745903;81;21979;-69
2022/09/20 08:41:48;;;;;;;11.78;6.03;;;;;;;12.94;100.00;99693.86;1746236;81;21070;-68
2022/09/20 08:44:30;;;;;;;13.95;6.55;;;;;;;12.97;100.00;99692.36;1746133;81;21116;-68
2022/09/20 08:47:14;;;;;;;12.03;6.62;;;;;;;13.03;100.00;99692.05;1745909;81;21570;-69
2022/09/20 08:49:41;;;;;;;11.65;6.30;;;;;;;13.06;100.00;99692.34;1744475;82;21101;-68
2022/09/20 08:52:09;;;;;;;14.38;6.55;;;;;;;13.06;100.00;99688.37;1730667;82;21660;-68
2022/09/20 08:54:36;;;;;;;11.12;7.05;;;;;;;13.13;100.00;99689.75;1730566;82;21065;-69
2022/09/20 08:57:07;;;;;;;15.30;6.80;;;;;;;13.18;100.00;99683.73;1744013;82;21129;-68
2022/09/20 08:59:34;;;;;;;14.05;5.72;;;;;;;13.21;100.00;99684.44;1744135;82;21018;-68
2022/09/20 09:02:00;;;;;;;14.58;6.65;;;;;;;13.23;100.00;99690.97;1744097;82;21070;-68
2022/09/20 09:04:35;;;;;;;9.90;4.40;;;;;;;13.25;100.00;99686.45;1744649;82;21837;-68
2022/09/20 09:07:01;;;;;;;11.15;4.40;;;;;;;13.26;100.00;99689.95;1744160;82;21078;-69
2022/09/20 09:09:31;;;;;;;13.40;4.15;;;;;;;13.17;100.00;99700.07;1744310;82;21577;-67
2022/09/20 09:11:58;;;;;;;9.85;4.00;;;;;;;13.02;100.00;99703.53;1742907;82;21085;-68
2022/09/20 09:14:48;;;;;;;6.83;3.47;;;;;;;12.93;100.00;99698.30;1744612;82;21057;-68
2022/09/20 09:17:17;;;;;;;17.75;4.70;;;;;;;12.87;100.00;99698.63;1723048;82;21328;-68
2022/09/20 09:19:51;;;;;;;10.50;4.37;;;;;;;12.80;100.00;99698.09;1742071;82;21034;-69
2022/09/20 09:22:35;;;;;;;11.33;4.60;;;;;;;12.70;100.00;99698.20;1741618;82;21061;-69
2022/09/20 09:25:21;;;;;;;8.65;4.03;;;;;;;12.59;100.00;99696.59;1741509;82;21105;-66
2022/09/20 09:28:04;;;;;;;10.60;4.80;;;;;;;12.47;100.00;99690.60;1741494;82;21053;-69
2022/09/20 09:30:41;;;;;;;7.12;4.58;;;;;;;12.44;100.00;99698.69;1741674;82;21151;-67
2022/09/20 09:33:26;;;;;;;10.95;3.75;;;;;;;12.47;100.00;99690.60;1741576;82;21054;-67
2022/09/20 09:36:13;;;;;;;11.80;4.65;;;;;;;12.51;100.00;99693.00;1741276;82;21141;-68
2022/09/20 09:38:46;;;;;;;5.33;3.47;;;;;;;12.56;100.00;99690.13;1741465;82;22105;-68
2022/09/20 09:41:25;;;;;;;6.33;3.25;;;;;;;12.53;100.00;99679.73;1741757;82;21609;-70
2022/09/20 09:44:09;;;;;;;10.70;4.10;;;;;;;12.46;100.00;99684.95;1741418;82;21145;-69
2022/09/20 09:46:43;;;;;;;7.20;3.80;;;;;;;12.44;100.00;99685.48;1740613;82;21062;-67
2022/09/20 09:49:15;;;;;;;5.83;3.17;;;;;;;12.43;100.00;99678.04;1740782;82;21042;-69
2022/09/20 09:52:13;;;;;;;7.10;3.60;;;;;;;12.43;100.00;99678.52;1736792;82;21018;-68
2022/09/20 09:54:50;;;;;;;11.20;3.70;;;;;;;12.44;100.00;99682.84;1742563;82;21053;-68
2022/09/20 09:57:53;;;;;;;9.15;3.67;;;;;;;12.41;100.00;99680.37;1745699;81;21232;-69
2022/09/20 10:00:22;;;;;;;6.40;2.70;;;;;;;12.40;100.00;99686.13;1745856;82;21045;-69
2022/09/20 10:03:26;;;;;;;5.35;3.20;;;;;;;12.33;100.00;99680.31;1745725;81;21549;-69
2022/09/20 10:06:19;;;;;;;6.12;2.95;;;;;;;12.27;100.00;99685.89;1741428;82;21025;-68
2022/09/20 10:09:00;;;;;;;5.72;3.10;;;;;;;12.21;100.00;99679.59;1745964;81;21054;-69
2022/09/20 10:11:58;;;;;;;5.50;3.00;;;;;;;12.14;100.00;99686.13;1745660;81;21891;-69
2022/09/20 10:14:34;;;;;;;8.93;3.27;;;;;;;12.02;100.00;99681.47;1745588;81;21022;-69
2022/09/20 10:17:42;;;;;;;5.17;2.90;;;;;;;11.90;100.00;99685.58;1745871;82;21133;-69
2022/09/20 10:20:42;;;;;;;10.35;3.42;;;;;;;11.81;100.00;99686.84;1743109;82;21046;-69
2022/09/20 10:23:20;;;;;;;5.50;3.30;;;;;;;11.74;100.00;99684.12;1746084;82;21101;-68
2022/09/20 10:26:21;;;;;;;9.75;4.40;;;;;;;11.71;100.00;99681.61;1745551;81;21636;-69
2022/09/20 10:28:57;;;;;;;;;;;;;;;11.69;100.00;99676.44;1748540;81;20995;-69
2022/09/20 10:32:15;;;;;;;9.25;4.10;;;;;;;11.72;100.00;99674.11;1746114;81;20353;-69
2022/09/20 10:35:23;;;;;;;10.82;5.00;;;;;;;11.72;100.00;99667.52;1730538;82;21074;-69
2022/09/20 10:38:07;;;;;;;7.37;4.50;;;;;;;11.69;100.00;99661.08;1730658;82;21109;-69
2022/09/20 10:44:07;;;;;;;8.13;4.72;;;;;;;11.75;100.00;99655.48;1746218;81;21045;-69
2022/09/20 10:46:45;;;;;;;8.20;4.00;;;;;;;11.81;100.00;99647.27;1746525;81;21163;-70
2022/09/20 10:49:47;;;;;;;10.23;4.28;;;;;;;11.88;100.00;99643.42;1746063;82;21049;-68
2022/09/20 10:52:43;;;;;;;8.65;3.58;;;;;;;11.92;100.00;99633.59;1745863;81;21038;-67
2022/09/20 10:55:30;;;;;;;6.72;3.50;;;;;;;12.00;100.00;99635.83;1742156;81;21117;-69
2022/09/20 10:58:29;;;;;;;9.40;3.47;;;;;;;12.01;100.00;99627.84;1737836;82;21105;-67
2022/09/20 11:01:53;;;;;;;5.55;3.37;;;;;;;11.96;100.00;99629.39;1731557;82;21054;-70
2022/09/20 11:05:00;;;;;;;6.03;3.60;;;;;;;11.95;100.00;99621.08;1737262;82;21069;-69
2022/09/20 11:07:44;;;;;;;16.30;4.37;;;;;;;11.99;100.00;99626.22;1737541;82;21096;-68
2022/09/20 11:10:21;;;;;;;7.83;3.20;;;;;;;11.94;100.00;99623.34;1729068;82;21405;-67
2022/09/20 11:12:56;;;;;;;6.67;3.33;;;;;;;11.94;100.00;99622.02;1737788;82;21003;-68
2022/09/20 11:15:33;;;;;;;8.00;3.22;;;;;;;11.91;100.00;99619.52;1737607;82;21074;-69
2022/09/20 11:18:12;;;;;;;6.40;2.92;;;;;;;11.82;100.00;99633.14;1737357;82;21120;-68
2022/09/20 11:20:45;;;;;;;6.83;3.10;;;;;;;11.71;100.00;99627.54;1731028;82;21105;-69
2022/09/20 11:23:24;;;;;;;5.05;3.30;;;;;;;11.61;100.00;99624.98;1738905;82;22111;-69
2022/09/20 11:25:58;;;;;;;8.28;4.08;;;;;;;11.52;100.00;99629.77;1738825;82;21034;-69
2022/09/20 11:28:39;;;;;;;9.60;4.00;;;;;;;11.45;100.00;99629.67;1739303;82;21042;-69
2022/09/20 11:31:17;;;;;;;5.00;3.35;;;;;;;11.44;100.00;99625.34;1738945;82;21125;-68
2022/09/20 11:34:03;;;;;;;10.20;3.12;;;;;;;11.39;100.00;99622.09;1738911;82;21084;-68
2022/09/20 11:36:42;;;;;;;6.60;4.15;;;;;;;11.35;100.00;99616.56;1738495;82;21764;-68
2022/09/20 11:39:18;;;;;;;7.95;3.45;;;;;;;11.33;100.00;99618.42;1739209;82;21596;-69
2022/09/20 11:41:44;;;;;;;8.73;3.87;;;;;;;11.32;100.00;99622.00;1738133;82;21023;-68
2022/09/20 11:44:18;;;;;;;13.08;4.25;;;;;;;11.30;100.00;99633.08;1739371;82;21594;-69
2022/09/20 11:47:25;;;;;;;5.87;3.85;;;;;;;11.31;100.00;99620.27;1738998;82;21041;-70
2022/09/20 11:50:49;;;;;;;8.60;3.92;;;;;;;11.31;100.00;99626.39;1739521;82;21468;-67
2022/09/20 11:53:40;;;;;;;5.50;3.98;;;;;;;11.30;100.00;99627.80;1738874;82;21062;-68
2022/09/20 11:56:21;;;;;;;9.15;4.37;;;;;;;11.30;100.00;99627.80;1772339;80;21045;-69
2022/09/20 11:58:54;;;;;;;8.43;5.33;;;;;;;11.33;100.00;99625.01;1778993;80;21045;-69
2022/09/20 12:01:39;;;;;;;6.87;4.20;;;;;;;11.36;100.00;99624.00;1778677;80;21336;-68
2022/09/20 12:04:26;;;;;;;6.72;4.10;;;;;;;11.37;100.00;99625.73;1778879;80;21134;-68
2022/09/20 12:07:02;;;;;;;11.85;3.83;;;;;;;11.34;100.00;99624.06;1708347;83;21115;-68
2022/09/20 12:09:40;;;;;;;9.03;3.55;;;;;;;11.29;100.00;99616.84;1778752;80;21513;-70
2022/09/20 12:12:18;;;;;;;5.58;3.50;;;;;;;11.26;100.00;99618.33;1778640;80;21010;-69
2022/09/20 12:14:54;;;;;;;5.62;4.30;;;;;;;11.23;100.00;99614.06;1778519;80;21057;-70
2022/09/20 12:17:48;;;;;;;7.75;4.62;;;;;;;11.27;100.00;99618.70;1778596;80;21143;-68
2022/09/20 12:20:38;;;;;;;6.42;3.87;;;;;;;11.31;100.00;99618.95;1777488;80;21049;-67
2022/09/20 12:23:40;;;;;;;7.58;3.25;;;;;;;11.37;100.00;99614.71;1776867;80;21572;-68
2022/09/20 12:26:28;;;;;;;5.25;3.55;;;;;;;11.42;100.00;99610.06;1776519;80;21127;-68
2022/09/20 12:28:57;;;;;;;4.87;3.40;;;;;;;11.46;100.00;99604.19;1776813;80;21116;-69
2022/09/20 12:31:32;;;;;;;10.45;3.98;;;;;;;11.50;100.00;99611.87;1777049;80;21262;-68
2022/09/20 12:34:14;;;;;;;8.95;4.40;;;;;;;11.52;100.00;99615.73;1776562;80;21009;-69
2022/09/20 12:36:56;;;;;;;8.60;3.90;;;;;;;11.51;100.00;99614.04;1776728;80;21061;-66
2022/09/20 12:39:29;;;;;;;9.98;4.22;;;;;;;11.49;100.00;99605.34;1776659;80;21088;-68
2022/09/20 12:41:58;;;;;;;6.22;4.30;;;;;;;11.53;100.00;99602.48;1776791;80;21112;-67
2022/09/20 12:44:48;;;;;;;10.85;5.92;;;;;;;11.61;100.00;99598.61;1708116;84;21213;-67
2022/09/20 12:47:26;;;;;;;8.78;4.78;;;;;;;11.66;100.00;99593.48;1714852;83;21077;-68
2022/09/20 12:55:44;;;;;;;7.95;5.08;;;;;;;11.87;100.00;99582.78;1701281;83;21107;-68
2022/09/20 12:58:17;;;;;;;10.88;5.62;;;;;;;11.95;100.00;99585.92;1685180;85;21111;-68